sensor_id;sensor_type;location;lat;lon;timestamp;P1;durP1;ratioP1;P2;durP2;ratioP2
54123;SDS011;55741;53.252;5.788;2023-12-28T00:01:58;24.65;;;4.75;;
54123;SDS011;55741;53.252;5.788;2023-12-28T00:04:24;19.17;;;4.75;;
54123;SDS011;55741;53.252;5.788;2023-12-28T00:06:49;25.95;;;4.85;;
54123;SDS011;55741;53.252;5.788;2023-12-28T00:09:15;29.23;;;4.93;;
54123;SDS011;55741;53.252;5.788;2023-12-28T00:11:41;32.47;;;6.07;;
54123;SDS011;55741;53.252;5.788;2023-12-28T00:14:09;21.08;;;4.82;;
54123;SDS011;55741;53.252;5.788;2023-12-28T00:16:34;24.83;;;5.90;;
54123;SDS011;55741;53.252;5.788;2023-12-28T00:19:03;30.23;;;4.97;;
54123;SDS011;55741;53.252;5.788;2023-12-28T00:21:30;21.85;;;4.85;;
54123;SDS011;55741;53.252;5.788;2023-12-28T00:23:56;29.25;;;6.10;;
54123;SDS011;55741;53.252;5.788;2023-12-28T00:26:21;29.58;;;5.60;;
54123;SDS011;55741;53.252;5.788;2023-12-28T00:28:47;29.52;;;6.35;;
54123;SDS011;55741;53.252;5.788;2023-12-28T00:31:13;29.63;;;5.85;;
54123;SDS011;55741;53.252;5.788;2023-12-28T00:33:39;23.30;;;4.85;;
54123;SDS011;55741;53.252;5.788;2023-12-28T00:36:05;28.73;;;5.20;;
54123;SDS011;55741;53.252;5.788;2023-12-28T00:38:31;31.80;;;5.40;;
54123;SDS011;55741;53.252;5.788;2023-12-28T00:41:17;35.88;;;6.15;;
54123;SDS011;55741;53.252;5.788;2023-12-28T00:43:43;28.67;;;5.28;;
54123;SDS011;55741;53.252;5.788;2023-12-28T00:46:08;31.52;;;4.90;;
54123;SDS011;55741;53.252;5.788;2023-12-28T00:48:35;33.80;;;5.70;;
54123;SDS011;55741;53.252;5.788;2023-12-28T00:51:01;30.00;;;5.78;;
54123;SDS011;55741;53.252;5.788;2023-12-28T00:53:27;27.55;;;4.97;;
54123;SDS011;55741;53.252;5.788;2023-12-28T00:55:52;29.05;;;5.32;;
54123;SDS011;55741;53.252;5.788;2023-12-28T00:58:18;30.40;;;5.32;;
54123;SDS011;55741;53.252;5.788;2023-12-28T01:00:44;29.55;;;5.70;;
54123;SDS011;55741;53.252;5.788;2023-12-28T01:03:10;29.17;;;5.43;;
54123;SDS011;55741;53.252;5.788;2023-12-28T01:05:36;29.40;;;5.25;;
54123;SDS011;55741;53.252;5.788;2023-12-28T01:08:02;31.23;;;6.80;;
54123;SDS011;55741;53.252;5.788;2023-12-28T01:10:28;29.67;;;4.55;;
54123;SDS011;55741;53.252;5.788;2023-12-28T01:12:54;37.55;;;6.35;;
54123;SDS011;55741;53.252;5.788;2023-12-28T01:15:22;32.63;;;5.45;;
54123;SDS011;55741;53.252;5.788;2023-12-28T01:17:47;26.27;;;5.53;;
54123;SDS011;55741;53.252;5.788;2023-12-28T01:20:13;31.10;;;6.13;;
54123;SDS011;55741;53.252;5.788;2023-12-28T01:22:39;30.25;;;6.47;;
54123;SDS011;55741;53.252;5.788;2023-12-28T01:25:05;31.45;;;4.72;;
54123;SDS011;55741;53.252;5.788;2023-12-28T01:27:32;28.88;;;5.22;;
54123;SDS011;55741;53.252;5.788;2023-12-28T01:29:58;28.02;;;5.35;;
54123;SDS011;55741;53.252;5.788;2023-12-28T01:32:24;33.53;;;5.80;;
54123;SDS011;55741;53.252;5.788;2023-12-28T01:34:50;38.53;;;5.95;;
54123;SDS011;55741;53.252;5.788;2023-12-28T01:37:16;35.65;;;6.13;;
54123;SDS011;55741;53.252;5.788;2023-12-28T01:39:42;44.35;;;7.47;;
54123;SDS011;55741;53.252;5.788;2023-12-28T01:42:07;38.03;;;6.45;;
54123;SDS011;55741;53.252;5.788;2023-12-28T01:44:54;28.30;;;5.80;;
54123;SDS011;55741;53.252;5.788;2023-12-28T01:47:20;35.08;;;6.45;;
54123;SDS011;55741;53.252;5.788;2023-12-28T01:49:46;36.78;;;7.30;;
54123;SDS011;55741;53.252;5.788;2023-12-28T01:52:12;38.30;;;7.32;;
54123;SDS011;55741;53.252;5.788;2023-12-28T01:54:38;41.83;;;6.13;;
54123;SDS011;55741;53.252;5.788;2023-12-28T01:57:04;19.38;;;4.60;;
54123;SDS011;55741;53.252;5.788;2023-12-28T01:59:31;36.83;;;7.07;;
54123;SDS011;55741;53.252;5.788;2023-12-28T02:01:58;32.00;;;6.43;;
54123;SDS011;55741;53.252;5.788;2023-12-28T02:04:24;43.85;;;6.80;;
54123;SDS011;55741;53.252;5.788;2023-12-28T02:06:57;29.77;;;5.50;;
54123;SDS011;55741;53.252;5.788;2023-12-28T02:09:24;39.72;;;6.78;;
54123;SDS011;55741;53.252;5.788;2023-12-28T02:11:50;33.53;;;4.93;;
54123;SDS011;55741;53.252;5.788;2023-12-28T02:14:18;37.47;;;7.07;;
54123;SDS011;55741;53.252;5.788;2023-12-28T02:17:13;25.80;;;6.35;;
54123;SDS011;55741;53.252;5.788;2023-12-28T02:19:52;29.35;;;6.30;;
54123;SDS011;55741;53.252;5.788;2023-12-28T02:22:21;28.83;;;5.13;;
54123;SDS011;55741;53.252;5.788;2023-12-28T02:25:10;34.78;;;5.53;;
54123;SDS011;55741;53.252;5.788;2023-12-28T02:27:48;30.52;;;6.75;;
54123;SDS011;55741;53.252;5.788;2023-12-28T02:30:15;31.42;;;6.22;;
54123;SDS011;55741;53.252;5.788;2023-12-28T02:35:41;26.58;;;5.07;;
54123;SDS011;55741;53.252;5.788;2023-12-28T02:38:14;36.63;;;6.53;;
54123;SDS011;55741;53.252;5.788;2023-12-28T02:40:42;30.17;;;6.82;;
54123;SDS011;55741;53.252;5.788;2023-12-28T02:43:09;36.45;;;5.78;;
54123;SDS011;55741;53.252;5.788;2023-12-28T02:45:36;23.48;;;4.32;;
54123;SDS011;55741;53.252;5.788;2023-12-28T02:48:03;34.67;;;5.60;;
54123;SDS011;55741;53.252;5.788;2023-12-28T02:50:30;25.13;;;5.72;;
54123;SDS011;55741;53.252;5.788;2023-12-28T02:52:56;32.47;;;5.13;;
54123;SDS011;55741;53.252;5.788;2023-12-28T02:55:23;21.33;;;5.13;;
54123;SDS011;55741;53.252;5.788;2023-12-28T02:57:49;22.45;;;5.00;;
54123;SDS011;55741;53.252;5.788;2023-12-28T03:00:16;30.98;;;4.78;;
54123;SDS011;55741;53.252;5.788;2023-12-28T03:02:42;30.55;;;5.47;;
54123;SDS011;55741;53.252;5.788;2023-12-28T03:05:08;17.30;;;4.47;;
54123;SDS011;55741;53.252;5.788;2023-12-28T03:07:35;25.63;;;6.05;;
54123;SDS011;55741;53.252;5.788;2023-12-28T03:10:02;30.48;;;5.50;;
54123;SDS011;55741;53.252;5.788;2023-12-28T03:12:29;22.67;;;4.25;;
54123;SDS011;55741;53.252;5.788;2023-12-28T03:14:55;22.50;;;4.47;;
54123;SDS011;55741;53.252;5.788;2023-12-28T03:17:23;21.15;;;4.78;;
54123;SDS011;55741;53.252;5.788;2023-12-28T03:19:49;28.52;;;4.78;;
54123;SDS011;55741;53.252;5.788;2023-12-28T03:22:15;24.85;;;4.72;;
54123;SDS011;55741;53.252;5.788;2023-12-28T03:24:42;26.65;;;5.60;;
54123;SDS011;55741;53.252;5.788;2023-12-28T03:27:08;27.40;;;4.45;;
54123;SDS011;55741;53.252;5.788;2023-12-28T03:29:34;21.75;;;4.30;;
54123;SDS011;55741;53.252;5.788;2023-12-28T03:32:00;14.90;;;3.90;;
54123;SDS011;55741;53.252;5.788;2023-12-28T03:34:26;21.23;;;4.25;;
54123;SDS011;55741;53.252;5.788;2023-12-28T03:36:54;22.55;;;3.13;;
54123;SDS011;55741;53.252;5.788;2023-12-28T03:39:21;26.23;;;4.93;;
54123;SDS011;55741;53.252;5.788;2023-12-28T03:41:47;22.67;;;4.25;;
54123;SDS011;55741;53.252;5.788;2023-12-28T03:44:13;26.17;;;5.03;;
54123;SDS011;55741;53.252;5.788;2023-12-28T03:46:39;32.03;;;5.65;;
54123;SDS011;55741;53.252;5.788;2023-12-28T03:49:05;19.52;;;4.18;;
54123;SDS011;55741;53.252;5.788;2023-12-28T03:51:30;28.50;;;3.95;;
54123;SDS011;55741;53.252;5.788;2023-12-28T03:53:56;27.48;;;5.32;;
54123;SDS011;55741;53.252;5.788;2023-12-28T03:56:23;26.17;;;5.30;;
54123;SDS011;55741;53.252;5.788;2023-12-28T03:58:50;26.27;;;5.05;;
54123;SDS011;55741;53.252;5.788;2023-12-28T04:01:17;20.77;;;4.30;;
54123;SDS011;55741;53.252;5.788;2023-12-28T04:03:44;27.77;;;4.13;;
54123;SDS011;55741;53.252;5.788;2023-12-28T04:06:10;26.40;;;4.43;;
54123;SDS011;55741;53.252;5.788;2023-12-28T04:08:36;23.98;;;4.82;;
54123;SDS011;55741;53.252;5.788;2023-12-28T04:11:02;22.98;;;4.75;;
54123;SDS011;55741;53.252;5.788;2023-12-28T04:13:28;24.90;;;5.80;;
54123;SDS011;55741;53.252;5.788;2023-12-28T04:15:54;26.80;;;5.50;;
54123;SDS011;55741;53.252;5.788;2023-12-28T04:18:21;23.08;;;4.55;;
54123;SDS011;55741;53.252;5.788;2023-12-28T04:20:47;26.55;;;5.80;;
54123;SDS011;55741;53.252;5.788;2023-12-28T04:23:13;29.35;;;6.05;;
54123;SDS011;55741;53.252;5.788;2023-12-28T04:25:40;18.95;;;4.82;;
54123;SDS011;55741;53.252;5.788;2023-12-28T04:28:06;26.50;;;5.25;;
54123;SDS011;55741;53.252;5.788;2023-12-28T04:30:52;26.70;;;5.13;;
54123;SDS011;55741;53.252;5.788;2023-12-28T04:33:18;23.38;;;5.18;;
54123;SDS011;55741;53.252;5.788;2023-12-28T04:35:46;31.73;;;5.50;;
54123;SDS011;55741;53.252;5.788;2023-12-28T04:38:32;28.73;;;5.43;;
54123;SDS011;55741;53.252;5.788;2023-12-28T04:40:59;33.63;;;5.25;;
54123;SDS011;55741;53.252;5.788;2023-12-28T04:43:25;34.75;;;6.20;;
54123;SDS011;55741;53.252;5.788;2023-12-28T04:45:51;30.52;;;5.05;;
54123;SDS011;55741;53.252;5.788;2023-12-28T04:48:17;27.63;;;5.22;;
54123;SDS011;55741;53.252;5.788;2023-12-28T04:50:49;22.45;;;4.65;;
54123;SDS011;55741;53.252;5.788;2023-12-28T04:53:15;38.53;;;4.82;;
54123;SDS011;55741;53.252;5.788;2023-12-28T04:55:41;30.90;;;6.20;;
54123;SDS011;55741;53.252;5.788;2023-12-28T04:58:07;27.92;;;4.85;;
54123;SDS011;55741;53.252;5.788;2023-12-28T05:00:53;37.90;;;5.68;;
54123;SDS011;55741;53.252;5.788;2023-12-28T05:03:38;30.58;;;5.72;;
54123;SDS011;55741;53.252;5.788;2023-12-28T05:06:04;21.90;;;5.38;;
54123;SDS011;55741;53.252;5.788;2023-12-28T05:08:30;31.17;;;5.65;;
54123;SDS011;55741;53.252;5.788;2023-12-28T05:10:56;29.95;;;6.03;;
54123;SDS011;55741;53.252;5.788;2023-12-28T05:13:21;24.05;;;5.65;;
54123;SDS011;55741;53.252;5.788;2023-12-28T05:15:47;37.15;;;7.30;;
54123;SDS011;55741;53.252;5.788;2023-12-28T05:18:13;31.23;;;5.85;;
54123;SDS011;55741;53.252;5.788;2023-12-28T05:20:40;27.05;;;5.32;;
54123;SDS011;55741;53.252;5.788;2023-12-28T05:23:06;34.22;;;5.93;;
54123;SDS011;55741;53.252;5.788;2023-12-28T05:25:32;26.25;;;6.13;;
54123;SDS011;55741;53.252;5.788;2023-12-28T05:27:58;28.67;;;6.00;;
54123;SDS011;55741;53.252;5.788;2023-12-28T05:30:24;41.75;;;7.40;;
54123;SDS011;55741;53.252;5.788;2023-12-28T05:32:49;44.80;;;6.07;;
54123;SDS011;55741;53.252;5.788;2023-12-28T05:35:15;34.92;;;5.95;;
54123;SDS011;55741;53.252;5.788;2023-12-28T05:37:41;33.88;;;6.53;;
54123;SDS011;55741;53.252;5.788;2023-12-28T05:40:27;32.00;;;6.85;;
54123;SDS011;55741;53.252;5.788;2023-12-28T05:42:53;37.25;;;6.88;;
54123;SDS011;55741;53.252;5.788;2023-12-28T05:45:18;39.75;;;7.57;;
54123;SDS011;55741;53.252;5.788;2023-12-28T05:47:45;36.50;;;6.13;;
54123;SDS011;55741;53.252;5.788;2023-12-28T05:50:10;30.30;;;6.20;;
54123;SDS011;55741;53.252;5.788;2023-12-28T05:52:36;31.40;;;6.13;;
54123;SDS011;55741;53.252;5.788;2023-12-28T05:55:02;34.25;;;6.20;;
54123;SDS011;55741;53.252;5.788;2023-12-28T05:57:29;34.53;;;6.03;;
54123;SDS011;55741;53.252;5.788;2023-12-28T05:59:59;35.75;;;6.60;;
54123;SDS011;55741;53.252;5.788;2023-12-28T06:02:25;35.00;;;5.93;;
54123;SDS011;55741;53.252;5.788;2023-12-28T06:04:50;32.22;;;6.07;;
54123;SDS011;55741;53.252;5.788;2023-12-28T06:07:16;34.20;;;6.38;;
54123;SDS011;55741;53.252;5.788;2023-12-28T06:09:42;30.05;;;5.75;;
54123;SDS011;55741;53.252;5.788;2023-12-28T06:12:08;39.70;;;6.35;;
54123;SDS011;55741;53.252;5.788;2023-12-28T06:14:34;37.17;;;6.93;;
54123;SDS011;55741;53.252;5.788;2023-12-28T06:16:59;40.75;;;7.53;;
54123;SDS011;55741;53.252;5.788;2023-12-28T06:19:25;42.45;;;7.65;;
54123;SDS011;55741;53.252;5.788;2023-12-28T06:21:53;32.33;;;6.63;;
54123;SDS011;55741;53.252;5.788;2023-12-28T06:24:19;40.55;;;6.85;;
54123;SDS011;55741;53.252;5.788;2023-12-28T06:26:45;37.88;;;6.32;;
54123;SDS011;55741;53.252;5.788;2023-12-28T06:29:11;35.38;;;6.30;;
54123;SDS011;55741;53.252;5.788;2023-12-28T06:31:37;29.13;;;5.47;;
54123;SDS011;55741;53.252;5.788;2023-12-28T06:34:03;30.77;;;5.78;;
54123;SDS011;55741;53.252;5.788;2023-12-28T06:36:29;30.65;;;6.28;;
54123;SDS011;55741;53.252;5.788;2023-12-28T06:38:55;37.80;;;6.55;;
54123;SDS011;55741;53.252;5.788;2023-12-28T06:41:22;35.20;;;5.30;;
54123;SDS011;55741;53.252;5.788;2023-12-28T06:43:47;31.85;;;6.45;;
54123;SDS011;55741;53.252;5.788;2023-12-28T06:46:13;39.33;;;8.02;;
54123;SDS011;55741;53.252;5.788;2023-12-28T06:48:39;44.28;;;8.40;;
54123;SDS011;55741;53.252;5.788;2023-12-28T06:51:08;31.35;;;6.68;;
54123;SDS011;55741;53.252;5.788;2023-12-28T06:53:34;34.00;;;7.47;;
54123;SDS011;55741;53.252;5.788;2023-12-28T06:56:00;45.28;;;7.60;;
54123;SDS011;55741;53.252;5.788;2023-12-28T06:58:26;40.03;;;7.70;;
54123;SDS011;55741;53.252;5.788;2023-12-28T07:00:52;47.55;;;8.00;;
54123;SDS011;55741;53.252;5.788;2023-12-28T07:03:18;34.35;;;7.03;;
54123;SDS011;55741;53.252;5.788;2023-12-28T07:05:44;49.75;;;8.07;;
54123;SDS011;55741;53.252;5.788;2023-12-28T07:08:10;40.28;;;7.40;;
54123;SDS011;55741;53.252;5.788;2023-12-28T07:10:35;39.55;;;6.82;;
54123;SDS011;55741;53.252;5.788;2023-12-28T07:13:01;48.10;;;9.20;;
54123;SDS011;55741;53.252;5.788;2023-12-28T07:15:27;31.98;;;7.70;;
54123;SDS011;55741;53.252;5.788;2023-12-28T07:17:53;35.53;;;7.72;;
54123;SDS011;55741;53.252;5.788;2023-12-28T07:20:19;40.30;;;7.45;;
54123;SDS011;55741;53.252;5.788;2023-12-28T07:22:46;39.45;;;7.55;;
54123;SDS011;55741;53.252;5.788;2023-12-28T07:25:12;47.70;;;9.48;;
54123;SDS011;55741;53.252;5.788;2023-12-28T07:27:38;51.88;;;8.35;;
54123;SDS011;55741;53.252;5.788;2023-12-28T07:30:04;41.88;;;8.50;;
54123;SDS011;55741;53.252;5.788;2023-12-28T07:32:30;59.72;;;10.13;;
54123;SDS011;55741;53.252;5.788;2023-12-28T07:34:56;45.03;;;8.48;;
54123;SDS011;55741;53.252;5.788;2023-12-28T07:37:22;47.40;;;8.70;;
54123;SDS011;55741;53.252;5.788;2023-12-28T07:39:48;43.00;;;8.70;;
54123;SDS011;55741;53.252;5.788;2023-12-28T07:42:14;54.33;;;9.43;;
54123;SDS011;55741;53.252;5.788;2023-12-28T07:44:40;42.80;;;8.95;;
54123;SDS011;55741;53.252;5.788;2023-12-28T07:47:06;53.67;;;9.23;;
54123;SDS011;55741;53.252;5.788;2023-12-28T07:49:32;50.20;;;10.02;;
54123;SDS011;55741;53.252;5.788;2023-12-28T07:51:58;46.15;;;9.32;;
54123;SDS011;55741;53.252;5.788;2023-12-28T07:54:24;54.00;;;10.25;;
54123;SDS011;55741;53.252;5.788;2023-12-28T07:56:49;45.25;;;8.18;;
54123;SDS011;55741;53.252;5.788;2023-12-28T07:59:15;60.10;;;11.20;;
54123;SDS011;55741;53.252;5.788;2023-12-28T08:01:41;50.33;;;8.32;;
54123;SDS011;55741;53.252;5.788;2023-12-28T08:04:07;55.22;;;10.57;;
54123;SDS011;55741;53.252;5.788;2023-12-28T08:06:33;46.63;;;8.55;;
54123;SDS011;55741;53.252;5.788;2023-12-28T08:08:59;49.40;;;8.63;;
54123;SDS011;55741;53.252;5.788;2023-12-28T08:11:28;45.97;;;9.43;;
54123;SDS011;55741;53.252;5.788;2023-12-28T08:13:54;47.22;;;8.77;;
54123;SDS011;55741;53.252;5.788;2023-12-28T08:16:20;47.20;;;10.70;;
54123;SDS011;55741;53.252;5.788;2023-12-28T08:18:46;43.72;;;8.73;;
54123;SDS011;55741;53.252;5.788;2023-12-28T08:21:12;60.85;;;11.02;;
54123;SDS011;55741;53.252;5.788;2023-12-28T08:23:40;56.90;;;9.82;;
54123;SDS011;55741;53.252;5.788;2023-12-28T08:26:05;59.10;;;9.90;;
54123;SDS011;55741;53.252;5.788;2023-12-28T08:28:32;48.20;;;9.48;;
54123;SDS011;55741;53.252;5.788;2023-12-28T08:30:58;74.00;;;11.88;;
54123;SDS011;55741;53.252;5.788;2023-12-28T08:33:24;62.67;;;10.85;;
54123;SDS011;55741;53.252;5.788;2023-12-28T08:36:11;58.90;;;9.77;;
54123;SDS011;55741;53.252;5.788;2023-12-28T08:38:37;65.47;;;10.23;;
54123;SDS011;55741;53.252;5.788;2023-12-28T08:41:03;66.40;;;11.18;;
54123;SDS011;55741;53.252;5.788;2023-12-28T08:43:34;60.45;;;9.95;;
54123;SDS011;55741;53.252;5.788;2023-12-28T08:46:01;66.03;;;11.90;;
54123;SDS011;55741;53.252;5.788;2023-12-28T08:48:27;56.55;;;10.35;;
54123;SDS011;55741;53.252;5.788;2023-12-28T08:50:53;65.50;;;11.65;;
54123;SDS011;55741;53.252;5.788;2023-12-28T08:53:19;62.92;;;13.10;;
54123;SDS011;55741;53.252;5.788;2023-12-28T08:58:45;44.50;;;8.85;;
54123;SDS011;55741;53.252;5.788;2023-12-28T09:01:22;61.67;;;10.07;;
54123;SDS011;55741;53.252;5.788;2023-12-28T09:03:51;58.75;;;11.15;;
54123;SDS011;55741;53.252;5.788;2023-12-28T09:06:18;57.20;;;10.65;;
54123;SDS011;55741;53.252;5.788;2023-12-28T09:08:51;54.08;;;10.00;;
54123;SDS011;55741;53.252;5.788;2023-12-28T09:11:38;39.85;;;9.85;;
54123;SDS011;55741;53.252;5.788;2023-12-28T09:14:04;51.53;;;8.23;;
54123;SDS011;55741;53.252;5.788;2023-12-28T09:16:30;52.50;;;9.55;;
54123;SDS011;55741;53.252;5.788;2023-12-28T09:18:56;49.28;;;10.82;;
54123;SDS011;55741;53.252;5.788;2023-12-28T09:21:22;59.00;;;8.93;;
54123;SDS011;55741;53.252;5.788;2023-12-28T09:23:49;50.53;;;9.98;;
54123;SDS011;55741;53.252;5.788;2023-12-28T09:26:15;56.42;;;10.60;;
54123;SDS011;55741;53.252;5.788;2023-12-28T09:28:41;63.58;;;11.02;;
54123;SDS011;55741;53.252;5.788;2023-12-28T09:31:08;55.85;;;11.00;;
54123;SDS011;55741;53.252;5.788;2023-12-28T09:33:34;54.67;;;11.05;;
54123;SDS011;55741;53.252;5.788;2023-12-28T09:36:02;46.17;;;9.43;;
54123;SDS011;55741;53.252;5.788;2023-12-28T09:38:29;53.47;;;8.80;;
54123;SDS011;55741;53.252;5.788;2023-12-28T09:40:55;48.92;;;9.85;;
54123;SDS011;55741;53.252;5.788;2023-12-28T09:43:31;47.30;;;9.45;;
54123;SDS011;55741;53.252;5.788;2023-12-28T09:46:22;64.72;;;11.70;;
54123;SDS011;55741;53.252;5.788;2023-12-28T09:48:48;45.15;;;8.18;;
54123;SDS011;55741;53.252;5.788;2023-12-28T09:51:15;40.90;;;7.95;;
54123;SDS011;55741;53.252;5.788;2023-12-28T09:53:42;48.05;;;8.60;;
54123;SDS011;55741;53.252;5.788;2023-12-28T09:56:30;42.30;;;9.15;;
54123;SDS011;55741;53.252;5.788;2023-12-28T09:58:57;46.47;;;8.50;;
54123;SDS011;55741;53.252;5.788;2023-12-28T10:01:24;42.42;;;8.90;;
54123;SDS011;55741;53.252;5.788;2023-12-28T10:03:50;51.80;;;9.13;;
54123;SDS011;55741;53.252;5.788;2023-12-28T10:06:16;42.17;;;10.10;;
54123;SDS011;55741;53.252;5.788;2023-12-28T10:08:45;44.72;;;8.73;;
54123;SDS011;55741;53.252;5.788;2023-12-28T10:11:18;54.38;;;9.77;;
54123;SDS011;55741;53.252;5.788;2023-12-28T10:13:44;52.25;;;8.02;;
54123;SDS011;55741;53.252;5.788;2023-12-28T10:16:15;41.55;;;8.23;;
54123;SDS011;55741;53.252;5.788;2023-12-28T10:18:44;40.50;;;7.10;;
54123;SDS011;55741;53.252;5.788;2023-12-28T10:21:10;44.60;;;9.55;;
54123;SDS011;55741;53.252;5.788;2023-12-28T10:23:40;41.28;;;7.07;;
54123;SDS011;55741;53.252;5.788;2023-12-28T10:26:08;42.53;;;7.22;;
54123;SDS011;55741;53.252;5.788;2023-12-28T10:28:34;40.50;;;7.47;;
54123;SDS011;55741;53.252;5.788;2023-12-28T10:31:03;40.70;;;7.88;;
54123;SDS011;55741;53.252;5.788;2023-12-28T10:33:36;42.22;;;10.50;;
54123;SDS011;55741;53.252;5.788;2023-12-28T10:36:05;56.22;;;9.18;;
54123;SDS011;55741;53.252;5.788;2023-12-28T10:38:34;42.92;;;8.38;;
54123;SDS011;55741;53.252;5.788;2023-12-28T10:41:03;45.58;;;8.75;;
54123;SDS011;55741;53.252;5.788;2023-12-28T10:43:31;51.63;;;9.00;;
54123;SDS011;55741;53.252;5.788;2023-12-28T10:46:37;39.85;;;7.05;;
54123;SDS011;55741;53.252;5.788;2023-12-28T10:49:12;33.90;;;8.57;;
54123;SDS011;55741;53.252;5.788;2023-12-28T10:51:41;47.22;;;9.32;;
54123;SDS011;55741;53.252;5.788;2023-12-28T10:57:11;49.15;;;9.20;;
54123;SDS011;55741;53.252;5.788;2023-12-28T11:00:00;44.90;;;8.00;;
54123;SDS011;55741;53.252;5.788;2023-12-28T11:02:44;54.47;;;8.02;;
54123;SDS011;55741;53.252;5.788;2023-12-28T11:05:14;49.58;;;8.25;;
54123;SDS011;55741;53.252;5.788;2023-12-28T11:07:42;45.78;;;7.30;;
54123;SDS011;55741;53.252;5.788;2023-12-28T11:10:09;39.28;;;7.75;;
54123;SDS011;55741;53.252;5.788;2023-12-28T11:12:37;32.03;;;7.07;;
54123;SDS011;55741;53.252;5.788;2023-12-28T11:15:04;36.38;;;8.15;;
54123;SDS011;55741;53.252;5.788;2023-12-28T11:17:31;42.05;;;7.13;;
54123;SDS011;55741;53.252;5.788;2023-12-28T11:19:58;44.97;;;8.40;;
54123;SDS011;55741;53.252;5.788;2023-12-28T11:22:25;44.15;;;8.20;;
54123;SDS011;55741;53.252;5.788;2023-12-28T11:24:52;43.63;;;8.50;;
54123;SDS011;55741;53.252;5.788;2023-12-28T11:27:20;41.15;;;8.60;;
54123;SDS011;55741;53.252;5.788;2023-12-28T11:29:49;49.83;;;9.18;;
54123;SDS011;55741;53.252;5.788;2023-12-28T11:32:17;40.28;;;7.78;;
54123;SDS011;55741;53.252;5.788;2023-12-28T11:34:44;40.58;;;8.05;;
54123;SDS011;55741;53.252;5.788;2023-12-28T11:37:12;42.08;;;7.90;;
54123;SDS011;55741;53.252;5.788;2023-12-28T11:39:44;41.40;;;9.05;;
54123;SDS011;55741;53.252;5.788;2023-12-28T11:42:10;37.75;;;7.03;;
54123;SDS011;55741;53.252;5.788;2023-12-28T11:44:37;48.22;;;8.98;;
54123;SDS011;55741;53.252;5.788;2023-12-28T11:47:14;54.40;;;9.93;;
54123;SDS011;55741;53.252;5.788;2023-12-28T11:49:49;43.83;;;7.63;;
54123;SDS011;55741;53.252;5.788;2023-12-28T11:52:26;57.85;;;9.10;;
54123;SDS011;55741;53.252;5.788;2023-12-28T11:54:53;47.17;;;9.38;;
54123;SDS011;55741;53.252;5.788;2023-12-28T11:57:20;51.10;;;8.25;;
54123;SDS011;55741;53.252;5.788;2023-12-28T11:59:56;42.53;;;8.60;;
54123;SDS011;55741;53.252;5.788;2023-12-28T12:02:24;42.03;;;8.27;;
54123;SDS011;55741;53.252;5.788;2023-12-28T12:04:50;51.40;;;9.02;;
54123;SDS011;55741;53.252;5.788;2023-12-28T12:07:16;48.97;;;9.30;;
54123;SDS011;55741;53.252;5.788;2023-12-28T12:09:42;48.22;;;8.15;;
54123;SDS011;55741;53.252;5.788;2023-12-28T12:12:08;50.55;;;8.50;;
54123;SDS011;55741;53.252;5.788;2023-12-28T12:14:34;49.58;;;8.95;;
54123;SDS011;55741;53.252;5.788;2023-12-28T12:17:01;46.90;;;9.07;;
54123;SDS011;55741;53.252;5.788;2023-12-28T12:19:27;56.85;;;9.55;;
54123;SDS011;55741;53.252;5.788;2023-12-28T12:21:53;44.53;;;8.70;;
54123;SDS011;55741;53.252;5.788;2023-12-28T12:24:20;52.78;;;8.98;;
54123;SDS011;55741;53.252;5.788;2023-12-28T12:26:47;56.55;;;10.32;;
54123;SDS011;55741;53.252;5.788;2023-12-28T12:29:15;52.15;;;9.27;;
54123;SDS011;55741;53.252;5.788;2023-12-28T12:31:42;52.90;;;9.20;;
54123;SDS011;55741;53.252;5.788;2023-12-28T12:34:14;51.95;;;9.65;;
54123;SDS011;55741;53.252;5.788;2023-12-28T12:36:41;52.45;;;10.05;;
54123;SDS011;55741;53.252;5.788;2023-12-28T12:39:09;45.15;;;8.95;;
54123;SDS011;55741;53.252;5.788;2023-12-28T12:41:36;51.20;;;10.05;;
54123;SDS011;55741;53.252;5.788;2023-12-28T12:44:03;41.03;;;9.10;;
54123;SDS011;55741;53.252;5.788;2023-12-28T12:46:30;43.40;;;6.97;;
54123;SDS011;55741;53.252;5.788;2023-12-28T12:48:57;41.60;;;8.57;;
54123;SDS011;55741;53.252;5.788;2023-12-28T12:51:23;49.33;;;8.57;;
54123;SDS011;55741;53.252;5.788;2023-12-28T12:53:59;43.08;;;10.00;;
54123;SDS011;55741;53.252;5.788;2023-12-28T12:56:28;53.47;;;9.85;;
54123;SDS011;55741;53.252;5.788;2023-12-28T12:58:54;47.15;;;8.63;;
54123;SDS011;55741;53.252;5.788;2023-12-28T13:01:21;39.42;;;8.52;;
54123;SDS011;55741;53.252;5.788;2023-12-28T13:03:50;48.45;;;9.18;;
54123;SDS011;55741;53.252;5.788;2023-12-28T13:06:17;40.55;;;7.82;;
54123;SDS011;55741;53.252;5.788;2023-12-28T13:08:43;43.60;;;8.30;;
54123;SDS011;55741;53.252;5.788;2023-12-28T13:11:09;41.65;;;7.07;;
54123;SDS011;55741;53.252;5.788;2023-12-28T13:13:35;49.72;;;8.50;;
54123;SDS011;55741;53.252;5.788;2023-12-28T13:16:02;42.00;;;6.82;;
54123;SDS011;55741;53.252;5.788;2023-12-28T13:18:28;39.97;;;7.68;;
54123;SDS011;55741;53.252;5.788;2023-12-28T13:20:54;36.60;;;6.55;;
54123;SDS011;55741;53.252;5.788;2023-12-28T13:23:20;36.92;;;7.05;;
54123;SDS011;55741;53.252;5.788;2023-12-28T13:25:46;47.78;;;10.30;;
54123;SDS011;55741;53.252;5.788;2023-12-28T13:28:12;37.15;;;8.90;;
54123;SDS011;55741;53.252;5.788;2023-12-28T13:30:40;43.33;;;8.82;;
54123;SDS011;55741;53.252;5.788;2023-12-28T13:33:06;49.78;;;8.88;;
54123;SDS011;55741;53.252;5.788;2023-12-28T13:35:32;46.63;;;8.18;;
54123;SDS011;55741;53.252;5.788;2023-12-28T13:38:00;40.40;;;8.25;;
54123;SDS011;55741;53.252;5.788;2023-12-28T13:40:27;43.40;;;8.98;;
54123;SDS011;55741;53.252;5.788;2023-12-28T13:42:53;60.70;;;8.90;;
54123;SDS011;55741;53.252;5.788;2023-12-28T13:45:19;32.05;;;7.22;;
54123;SDS011;55741;53.252;5.788;2023-12-28T13:47:45;51.90;;;9.35;;
54123;SDS011;55741;53.252;5.788;2023-12-28T13:50:11;44.85;;;8.43;;
54123;SDS011;55741;53.252;5.788;2023-12-28T13:52:37;37.08;;;8.98;;
54123;SDS011;55741;53.252;5.788;2023-12-28T13:55:02;37.22;;;6.70;;
54123;SDS011;55741;53.252;5.788;2023-12-28T13:57:28;44.33;;;9.27;;
54123;SDS011;55741;53.252;5.788;2023-12-28T13:59:54;35.92;;;6.63;;
54123;SDS011;55741;53.252;5.788;2023-12-28T14:02:25;48.85;;;9.45;;
54123;SDS011;55741;53.252;5.788;2023-12-28T14:04:54;56.78;;;9.48;;
54123;SDS011;55741;53.252;5.788;2023-12-28T14:07:21;43.47;;;7.13;;
54123;SDS011;55741;53.252;5.788;2023-12-28T14:09:48;27.67;;;6.85;;
54123;SDS011;55741;53.252;5.788;2023-12-28T14:12:14;50.10;;;8.65;;
54123;SDS011;55741;53.252;5.788;2023-12-28T14:14:40;38.10;;;7.28;;
54123;SDS011;55741;53.252;5.788;2023-12-28T14:17:05;42.50;;;7.25;;
54123;SDS011;55741;53.252;5.788;2023-12-28T14:19:31;33.67;;;6.38;;
54123;SDS011;55741;53.252;5.788;2023-12-28T14:21:58;36.13;;;7.18;;
54123;SDS011;55741;53.252;5.788;2023-12-28T14:24:24;33.42;;;6.32;;
54123;SDS011;55741;53.252;5.788;2023-12-28T14:26:54;30.77;;;5.47;;
54123;SDS011;55741;53.252;5.788;2023-12-28T14:29:21;40.85;;;7.55;;
54123;SDS011;55741;53.252;5.788;2023-12-28T14:31:49;34.08;;;6.10;;
54123;SDS011;55741;53.252;5.788;2023-12-28T14:34:16;33.15;;;7.20;;
54123;SDS011;55741;53.252;5.788;2023-12-28T14:37:02;34.20;;;6.35;;
54123;SDS011;55741;53.252;5.788;2023-12-28T14:39:28;36.90;;;6.38;;
54123;SDS011;55741;53.252;5.788;2023-12-28T14:41:54;39.63;;;6.93;;
54123;SDS011;55741;53.252;5.788;2023-12-28T14:44:20;29.25;;;6.47;;
54123;SDS011;55741;53.252;5.788;2023-12-28T14:46:46;33.42;;;6.05;;